Time;durP1;ratioP1;P1;durP2;ratioP2;P2;SDS_P1;SDS_P2;PMS_P1;PMS_P2;Temp;Humidity;BMP_temperature;BMP_pressure;BME280_temperature;BME280_humidity;BME280_pressure;Samples;Min_cycle;Max_cycle;Signal;HPM_P1;HPM_P2
2023/04/07 00:00:20;;;;;;;7.05;2.90;;;;;;;-146.27;100.00;83951.34;5088950;28;20860;-70
2023/04/07 00:02:47;;;;;;;8.15;3.30;;;;;;;-146.27;100.00;83923.22;5091523;28;20021;-70
2023/04/07 00:05:13;;;;;;;15.52;3.80;;;;;;;-146.27;100.00;83955.38;5091711;28;20024;-70
2023/04/07 00:07:38;;;;;;;15.05;4.75;;;;;;;-146.27;100.00;83987.53;5099483;28;20451;-70
2023/04/07 00:10:04;;;;;;;9.90;3.97;;;;;;;-146.27;100.00;83915.19;5078434;28;20352;-69
2023/04/07 00:12:30;;;;;;;19.10;3.78;;;;;;;-146.27;100.00;83927.25;5082290;28;20090;-69
2023/04/07 00:14:55;;;;;;;17.80;3.70;;;;;;;-146.27;100.00;83959.41;5091557;28;20066;-70
2023/04/07 00:17:20;;;;;;;10.35;3.03;;;;;;;-146.27;100.00;83949.34;5084941;28;20024;-70
2023/04/07 00:19:46;;;;;;;15.32;3.20;;;;;;;-146.27;100.00;83961.41;5082094;28;20024;-69
2023/04/07 00:22:11;;;;;;;17.48;3.38;;;;;;;-146.27;100.00;83967.44;5085381;28;20126;-69
2023/04/07 00:24:36;;;;;;;14.10;2.72;;;;;;;-146.27;100.00;83999.59;5093566;28;20776;-70
2023/04/07 00:27:02;;;;;;;17.02;3.55;;;;;;;-146.27;100.00;83955.38;5098886;28;20032;-70
2023/04/07 00:29:27;;;;;;;13.30;2.83;;;;;;;-146.27;100.00;83973.47;5090945;28;20020;-70
2023/04/07 00:31:53;;;;;;;10.25;3.00;;;;;;;-146.27;100.00;83973.47;5091063;28;20028;-69
2023/04/07 00:34:18;;;;;;;18.33;3.83;;;;;;;-146.27;100.00;83935.28;5094005;28;20048;-70
2023/04/07 00:36:48;;;;;;;10.68;3.10;;;;;;;-146.27;100.00;83987.53;5083378;28;20051;-69
2023/04/07 00:39:14;;;;;;;12.50;3.22;;;;;;;-146.27;100.00;83971.47;5096680;28;20045;-70
2023/04/07 00:41:39;;;;;;;11.38;2.63;;;;;;;-146.27;100.00;83975.47;5090207;28;20048;-70
2023/04/07 00:44:04;;;;;;;16.42;2.83;;;;;;;-146.27;100.00;83989.53;5087590;28;20103;-70
2023/04/07 00:46:30;;;;;;;18.85;3.03;;;;;;;-146.27;100.00;84011.66;5079344;28;20059;-68
2023/04/07 00:48:55;;;;;;;13.98;3.42;;;;;;;-146.27;100.00;84039.78;5077956;28;20056;-69
2023/04/07 00:51:21;;;;;;;10.10;2.53;;;;;;;-146.27;100.00;84035.75;5079834;28;20123;-70
2023/04/07 00:53:48;;;;;;;12.02;3.15;;;;;;;-146.27;100.00;84031.75;5082119;28;20027;-69
2023/04/07 00:56:13;;;;;;;16.90;3.35;;;;;;;-146.27;100.00;84045.81;5087901;28;20485;-69
2023/04/07 00:58:39;;;;;;;18.23;4.13;;;;;;;-146.27;100.00;84067.91;5091132;28;20024;-69
2023/04/07 01:01:15;;;;;;;11.60;3.22;;;;;;;-146.27;100.00;84071.94;5079811;28;20054;-70
2023/04/07 01:04:25;;;;;;;15.73;2.67;;;;;;;-146.27;100.00;84100.06;5083777;28;20046;-72
2023/04/07 01:06:55;;;;;;;13.60;3.35;;;;;;;-146.27;100.00;84086.00;5042343;28;20803;-68
2023/04/07 01:09:27;;;;;;;14.57;3.17;;;;;;;-146.27;100.00;84086.00;5078664;28;20040;-70
2023/04/07 01:12:17;;;;;;;20.88;3.42;;;;;;;-146.27;100.00;84059.88;5097400;28;20027;-70
2023/04/07 01:14:49;;;;;;;14.68;3.33;;;;;;;-146.27;100.00;84128.22;5083453;28;20571;-70
2023/04/07 01:17:18;;;;;;;13.77;2.70;;;;;;;-146.27;100.00;84096.06;5088786;28;20028;-70
2023/04/07 01:19:52;;;;;;;22.55;4.00;;;;;;;-146.27;100.00;84096.06;5094107;28;20115;-70
2023/04/07 01:22:25;;;;;;;18.85;3.25;;;;;;;-146.27;100.00;84112.13;5088097;28;20028;-69
2023/04/07 01:25:20;;;;;;;22.83;3.50;;;;;;;-146.27;100.00;84071.94;5077357;28;20403;-69
2023/04/07 01:28:02;;;;;;;9.25;3.13;;;;;;;-146.27;100.00;84043.81;5087473;28;20478;-69
2023/04/07 01:30:33;;;;;;;12.70;3.33;;;;;;;-146.27;100.00;84110.13;5097090;28;20032;-69
2023/04/07 01:33:00;;;;;;;15.88;3.55;;;;;;;-146.27;100.00;84065.91;5084778;28;20035;-69
2023/04/07 01:35:28;;;;;;;16.63;4.18;;;;;;;-146.27;100.00;84065.91;5094364;28;20080;-70
2023/04/07 01:37:54;;;;;;;16.23;3.35;;;;;;;-146.27;100.00;84088.00;5094949;28;20050;-69
2023/04/07 01:40:21;;;;;;;15.98;3.50;;;;;;;-146.27;100.00;84055.84;5095028;28;20468;-69
2023/04/07 01:42:48;;;;;;;13.18;3.53;;;;;;;-146.27;100.00;84071.94;5084113;28;20016;-68
2023/04/07 01:45:15;;;;;;;30.38;4.18;;;;;;;-146.27;100.00;84086.00;5088521;28;20191;-69
2023/04/07 01:47:42;;;;;;;20.45;4.05;;;;;;;-146.27;100.00;84071.94;5080974;28;20031;-69
2023/04/07 01:50:10;;;;;;;21.73;3.92;;;;;;;-146.27;100.00;84027.72;5089176;28;20107;-70
2023/04/07 01:52:36;;;;;;;17.38;3.40;;;;;;;-146.27;100.00;84065.91;5085181;28;20024;-70
2023/04/07 01:55:04;;;;;;;17.27;4.20;;;;;;;-146.27;100.00;84084.00;5092540;28;20020;-70
2023/04/07 01:57:29;;;;;;;14.50;4.35;;;;;;;-146.27;100.00;84059.88;5090260;28;20024;-69
2023/04/07 01:59:55;;;;;;;20.58;3.65;;;;;;;-146.27;100.00;84118.16;5096763;28;20076;-69
2023/04/07 02:02:20;;;;;;;23.33;4.22;;;;;;;-146.27;100.00;84005.63;5097722;28;20081;-69
2023/04/07 02:04:56;;;;;;;15.00;4.03;;;;;;;-146.27;100.00;84031.75;5091701;28;20042;-70
2023/04/07 02:07:49;;;;;;;22.40;4.10;;;;;;;-146.27;100.00;84029.72;5080463;28;20031;-69
2023/04/07 02:10:16;;;;;;;20.63;3.92;;;;;;;-146.27;100.00;84039.78;5082921;28;20044;-70
2023/04/07 02:12:45;;;;;;;16.15;4.57;;;;;;;-146.27;100.00;84055.84;5083811;28;20097;-69
2023/04/07 02:15:12;;;;;;;29.33;5.00;;;;;;;-146.27;100.00;84031.75;5092009;28;20024;-70
2023/04/07 02:17:40;;;;;;;11.65;4.07;;;;;;;-146.27;100.00;84075.94;5091717;28;20387;-70
2023/04/07 02:20:09;;;;;;;25.67;5.55;;;;;;;-146.27;100.00;84035.75;5078640;28;20105;-70
2023/04/07 02:22:36;;;;;;;18.55;4.28;;;;;;;-146.27;100.00;84081.97;5094254;28;20598;-70
2023/04/07 02:25:01;;;;;;;21.00;5.00;;;;;;;-146.27;100.00;84039.78;5097935;28;20082;-69
2023/04/07 02:27:26;;;;;;;25.60;4.32;;;;;;;-146.27;100.00;84075.94;5085424;28;20388;-69
2023/04/07 02:29:53;;;;;;;18.75;4.07;;;;;;;-146.27;100.00;84071.94;5095972;28;20030;-70
2023/04/07 02:32:18;;;;;;;15.85;4.25;;;;;;;-146.27;100.00;84051.84;5089859;28;20081;-69
2023/04/07 02:34:43;;;;;;;24.85;4.90;;;;;;;-146.27;100.00;84079.97;5089922;28;20032;-70
2023/04/07 02:37:09;;;;;;;21.08;4.10;;;;;;;-146.27;100.00;84084.00;5089563;28;20487;-68
2023/04/07 02:39:34;;;;;;;17.50;4.60;;;;;;;-146.27;100.00;84031.75;5078646;28;20572;-70
2023/04/07 02:42:00;;;;;;;23.80;4.45;;;;;;;-146.27;100.00;84047.81;5100227;28;20111;-69
2023/04/07 02:44:25;;;;;;;16.33;3.65;;;;;;;-146.27;100.00;84059.88;5097394;28;20463;-70
2023/04/07 02:46:50;;;;;;;11.38;3.63;;;;;;;-146.27;100.00;84047.81;5088618;28;20024;-69
2023/04/07 02:49:16;;;;;;;13.85;3.65;;;;;;;-146.27;100.00;84049.84;5079597;28;20116;-69
2023/04/07 02:51:41;;;;;;;22.88;3.45;;;;;;;-146.27;100.00;84007.63;5091488;28;20024;-69
2023/04/07 02:54:07;;;;;;;8.35;3.90;;;;;;;-146.27;100.00;84005.63;5099804;28;20015;-69
2023/04/07 02:56:32;;;;;;;16.27;3.42;;;;;;;-146.27;100.00;84088.00;5099391;28;20107;-69
2023/04/07 02:58:57;;;;;;;14.30;4.00;;;;;;;-146.27;100.00;84035.75;5102264;28;20030;-69
2023/04/07 03:01:23;;;;;;;15.18;3.60;;;;;;;-146.27;100.00;84035.75;5085590;28;20090;-69
2023/04/07 03:03:48;;;;;;;11.88;3.50;;;;;;;-146.27;100.00;83971.47;5098233;28;20020;-69
2023/04/07 03:06:14;;;;;;;18.38;4.35;;;;;;;-146.27;100.00;84043.81;5090550;28;20047;-68
2023/04/07 03:08:41;;;;;;;22.73;3.55;;;;;;;-146.27;100.00;84031.75;5082036;28;20425;-70
2023/04/07 03:11:06;;;;;;;8.57;2.78;;;;;;;-146.27;100.00;84039.78;5099871;28;20046;-70
2023/04/07 03:13:31;;;;;;;12.27;3.75;;;;;;;-146.27;100.00;84017.69;5095159;28;20024;-70
2023/04/07 03:15:57;;;;;;;15.45;2.95;;;;;;;-146.27;100.00;84007.63;5088485;28;20471;-69
2023/04/07 03:18:22;;;;;;;15.00;3.22;;;;;;;-146.27;100.00;83991.56;5089808;28;20107;-70
2023/04/07 03:20:48;;;;;;;9.45;3.13;;;;;;;-146.27;100.00;83993.56;5098198;28;20044;-68
2023/04/07 03:23:13;;;;;;;11.35;3.30;;;;;;;-146.27;100.00;83963.41;5092915;28;20022;-68
2023/04/07 03:25:40;;;;;;;9.57;3.65;;;;;;;-146.27;100.00;84005.63;5097573;28;20026;-69
2023/04/07 03:28:05;;;;;;;10.40;4.28;;;;;;;-146.27;100.00;83979.50;5085419;28;20031;-69
2023/04/07 03:30:30;;;;;;;11.60;4.47;;;;;;;-146.27;100.00;83943.31;5084556;28;20032;-69
2023/04/07 03:32:56;;;;;;;13.15;5.13;;;;;;;-146.27;100.00;83975.47;5090692;28;20020;-69
2023/04/07 03:35:21;;;;;;;16.48;4.75;;;;;;;-146.27;100.00;83987.53;5111408;28;20102;-70
2023/04/07 03:37:47;;;;;;;15.30;4.30;;;;;;;-146.27;100.00;84005.63;5081127;28;20052;-70
2023/04/07 03:40:12;;;;;;;10.68;3.90;;;;;;;-146.27;100.00;83953.38;5090822;28;20068;-70
2023/04/07 03:42:37;;;;;;;12.00;3.88;;;;;;;-146.27;100.00;83923.22;5089030;28;20056;-70
2023/04/07 03:45:03;;;;;;;20.23;3.55;;;;;;;-146.27;100.00;83975.47;5094780;28;20020;-70
2023/04/07 03:47:28;;;;;;;11.50;2.72;;;;;;;-146.27;100.00;83963.41;5089126;28;20479;-70
2023/04/07 03:49:54;;;;;;;10.32;3.15;;;;;;;-146.27;100.00;83959.41;5079048;28;20463;-70
2023/04/07 03:52:19;;;;;;;12.15;3.35;;;;;;;-146.27;100.00;83919.19;5086277;28;20024;-69
2023/04/07 03:54:45;;;;;;;5.88;2.50;;;;;;;-146.27;100.00;83907.16;5092169;28;20464;-68
2023/04/07 03:57:10;;;;;;;13.75;3.30;;;;;;;-146.27;100.00;83953.38;5080459;28;20046;-70
2023/04/07 03:59:36;;;;;;;15.70;2.58;;;;;;;-146.27;100.00;83965.44;5089256;28;20039;-70
2023/04/07 04:02:01;;;;;;;8.13;2.70;;;;;;;-146.27;100.00;83943.31;5091600;28;20106;-68
2023/04/07 04:04:27;;;;;;;8.38;2.35;;;;;;;-146.27;100.00;83949.34;5088007;28;20411;-70
2023/04/07 04:06:52;;;;;;;12.48;2.72;;;;;;;-146.27;100.00;83975.47;5102899;28;20027;-70
2023/04/07 04:09:17;;;;;;;10.30;2.08;;;;;;;-146.27;100.00;83947.34;5080584;28;20029;-70
2023/04/07 04:11:43;;;;;;;12.70;2.10;;;;;;;-146.27;100.00;83963.41;5095535;28;20463;-70
2023/04/07 04:14:08;;;;;;;8.48;3.13;;;;;;;-146.27;100.00;83953.38;5079323;28;20448;-69
2023/04/07 04:16:34;;;;;;;8.77;2.35;;;;;;;-146.27;100.00;83967.44;5087351;28;20043;-70
2023/04/07 04:19:00;;;;;;;7.88;2.53;;;;;;;-146.27;100.00;83941.31;5091241;28;20108;-68
2023/04/07 04:21:26;;;;;;;13.88;2.17;;;;;;;-146.27;100.00;83971.47;5083458;28;20024;-69
2023/04/07 04:23:52;;;;;;;8.23;2.47;;;;;;;-146.27;100.00;83989.53;5080862;28;20102;-69
2023/04/07 04:26:17;;;;;;;8.90;2.65;;;;;;;-146.27;100.00;83941.31;5086988;28;20483;-69
2023/04/07 04:28:42;;;;;;;11.07;2.70;;;;;;;-146.27;100.00;83971.47;5083928;28;20082;-69
2023/04/07 04:31:08;;;;;;;18.55;3.50;;;;;;;-146.27;100.00;84007.63;5085723;28;20023;-69
2023/04/07 04:33:33;;;;;;;12.40;3.03;;;;;;;-146.27;100.00;83995.56;5101371;28;20024;-69
2023/04/07 04:35:58;;;;;;;9.45;2.63;;;;;;;-146.27;100.00;83995.56;5108146;28;20049;-69
2023/04/07 04:38:24;;;;;;;14.52;4.05;;;;;;;-146.27;100.00;83981.50;5092297;28;20063;-69
2023/04/07 04:40:49;;;;;;;14.73;3.25;;;;;;;-146.27;100.00;83969.44;5094695;28;20414;-69
2023/04/07 04:43:15;;;;;;;12.10;2.88;;;;;;;-146.27;100.00;83959.41;5090276;28;20066;-70
2023/04/07 04:45:40;;;;;;;14.90;2.70;;;;;;;-146.27;100.00;83991.56;5103573;28;20023;-69
2023/04/07 04:48:05;;;;;;;14.38;3.15;;;;;;;-146.27;100.00;83977.47;5088310;28;20024;-70
2023/04/07 04:50:31;;;;;;;11.50;2.90;;;;;;;-146.27;100.00;83965.44;5085734;28;20027;-69
2023/04/07 04:52:56;;;;;;;16.73;2.50;;;;;;;-146.27;100.00;83963.41;5088248;28;20039;-69
2023/04/07 04:55:21;;;;;;;11.52;2.78;;;;;;;-146.27;100.00;83955.38;5092613;28;20024;-69
2023/04/07 04:57:47;;;;;;;13.15;2.58;;;;;;;-146.27;100.00;83959.41;5080719;28;20103;-69
2023/04/07 05:00:13;;;;;;;16.27;3.35;;;;;;;-146.27;100.00;83933.28;5079760;28;20476;-70
2023/04/07 05:02:38;;;;;;;6.75;2.15;;;;;;;-146.27;100.00;83987.53;5088556;28;20111;-69
2023/04/07 05:05:04;;;;;;;12.15;2.28;;;;;;;-146.27;100.00;83979.50;5092092;28;20709;-69
2023/04/07 05:07:30;;;;;;;9.18;2.25;;;;;;;-146.27;100.00;83919.19;5094175;28;20055;-69
2023/04/07 05:09:55;;;;;;;14.18;2.35;;;;;;;-146.27;100.00;83971.47;5096660;28;20131;-70
2023/04/07 05:12:21;;;;;;;11.38;2.38;;;;;;;-146.27;100.00;83983.50;5084453;28;20024;-69
2023/04/07 05:14:46;;;;;;;4.03;1.85;;;;;;;-146.27;100.00;83961.41;5088025;28;20149;-69
2023/04/07 05:17:11;;;;;;;10.85;1.80;;;;;;;-146.27;100.00;83963.41;5086056;28;20419;-72
2023/04/07 05:19:37;;;;;;;13.82;1.95;;;;;;;-146.27;100.00;83979.50;5078588;28;20391;-73
2023/04/07 05:22:02;;;;;;;9.00;1.92;;;;;;;-146.27;100.00;83995.56;5082525;28;20025;-73
2023/04/07 05:24:28;;;;;;;13.00;2.08;;;;;;;-146.27;100.00;83975.47;5083687;28;20384;-72
2023/04/07 05:26:55;;;;;;;8.98;1.80;;;;;;;-146.27;100.00;84003.59;5087811;28;20475;-71
2023/04/07 05:29:21;;;;;;;5.80;1.90;;;;;;;-146.27;100.00;83987.53;5089790;28;20028;-70
2023/04/07 05:31:47;;;;;;;9.07;2.88;;;;;;;-146.27;100.00;83983.50;5081966;28;20031;-70
2023/04/07 05:34:12;;;;;;;10.10;1.95;;;;;;;-146.27;100.00;83939.31;5075137;28;20024;-70
2023/04/07 05:36:37;;;;;;;6.03;1.60;;;;;;;-146.27;100.00;83927.25;5087640;28;20480;-68
2023/04/07 05:39:03;;;;;;;8.82;2.15;;;;;;;-146.27;100.00;83967.44;5100343;28;20497;-69
2023/04/07 05:41:28;;;;;;;4.55;1.92;;;;;;;-146.27;100.00;83983.50;5087604;28;20024;-69
2023/04/07 05:43:53;;;;;;;13.23;2.38;;;;;;;-146.27;100.00;84015.66;5100852;28;20016;-69
2023/04/07 05:46:19;;;;;;;11.70;2.50;;;;;;;-146.27;100.00;83975.47;5093543;28;20099;-69
2023/04/07 05:48:44;;;;;;;12.05;2.97;;;;;;;-146.27;100.00;83937.28;5079358;28;20020;-69
2023/04/07 05:51:10;;;;;;;12.68;2.30;;;;;;;-146.27;100.00;83951.34;5087505;28;20352;-70
2023/04/07 05:53:35;;;;;;;12.25;2.60;;;;;;;-146.27;100.00;84005.63;5085689;28;20027;-69
2023/04/07 05:56:00;;;;;;;9.57;2.53;;;;;;;-146.27;100.00;84001.59;5081482;28;20028;-69
2023/04/07 05:58:26;;;;;;;7.35;2.28;;;;;;;-146.27;100.00;83979.50;5086473;28;20035;-68
2023/04/07 06:00:52;;;;;;;8.02;2.22;;;;;;;-146.27;100.00;83983.50;5080720;28;20042;-70
2023/04/07 06:03:17;;;;;;;4.78;1.90;;;;;;;-146.27;100.00;83975.47;5082042;28;20027;-69
2023/04/07 06:05:45;;;;;;;6.43;2.08;;;;;;;-146.27;100.00;83953.38;5080908;28;20491;-70
2023/04/07 06:08:10;;;;;;;8.55;2.13;;;;;;;-146.27;100.00;83963.41;5079793;28;20028;-70
2023/04/07 06:10:36;;;;;;;10.93;2.03;;;;;;;-146.27;100.00;83967.44;5082419;28;20127;-70
2023/04/07 06:13:01;;;;;;;3.35;1.67;;;;;;;-146.27;100.00;83943.31;5083806;28;20136;-70
2023/04/07 06:15:27;;;;;;;4.05;1.52;;;;;;;-146.27;100.00;83983.50;5082944;28;20031;-71
2023/04/07 06:17:52;;;;;;;5.28;1.80;;;;;;;-146.27;100.00;83969.44;5087999;28;20489;-70
2023/04/07 06:20:20;;;;;;;8.88;1.75;;;;;;;-146.27;100.00;83949.34;5082550;28;20469;-70
2023/04/07 06:22:46;;;;;;;5.03;1.23;;;;;;;-146.27;100.00;83947.34;5079617;28;20031;-69
2023/04/07 06:25:11;;;;;;;4.45;1.55;;;;;;;-146.27;100.00;83951.34;5081024;28;20028;-69
2023/04/07 06:27:37;;;;;;;11.27;1.70;;;;;;;-146.27;100.00;83947.34;5079854;28;20204;-72
2023/04/07 06:30:02;;;;;;;17.02;2.03;;;;;;;-146.27;100.00;83891.06;5088487;28;20032;-73
2023/04/07 06:32:28;;;;;;;19.48;1.58;;;;;;;-146.27;100.00;83907.16;5085929;28;20150;-73
2023/04/07 06:34:54;;;;;;;8.38;1.48;;;;;;;-146.27;100.00;83903.13;5080724;28;20024;-72
2023/04/07 06:37:19;;;;;;;8.93;1.98;;;;;;;-146.27;100.00;83935.28;5074153;28;20016;-73
2023/04/07 06:39:44;;;;;;;13.32;1.52;;;;;;;-146.27;100.00;83939.31;5083734;28;20024;-73
2023/04/07 06:42:10;;;;;;;10.05;1.50;;;;;;;-146.27;100.00;83879.00;5079549;28;20013;-73
2023/04/07 06:44:35;;;;;;;15.30;1.95;;;;;;;-146.27;100.00;83935.28;5091534;28;20026;-73
2023/04/07 06:47:00;;;;;;;10.30;1.63;;;;;;;-146.27;100.00;83887.06;5089391;28;20032;-72
2023/04/07 06:49:26;;;;;;;17.02;2.33;;;;;;;-146.27;100.00;83899.09;5095217;28;20020;-72
2023/04/07 06:51:51;;;;;;;16.00;2.00;;;;;;;-146.27;100.00;83875.00;5086727;28;20040;-73
2023/04/07 06:54:16;;;;;;;7.72;1.88;;;;;;;-146.27;100.00;83872.97;5091576;28;20028;-73
2023/04/07 06:56:43;;;;;;;12.60;2.20;;;;;;;-146.27;100.00;83881.03;5082704;28;20031;-69
2023/04/07 06:59:09;;;;;;;4.47;1.17;;;;;;;-146.27;100.00;83899.09;5089925;28;20103;-70
2023/04/07 07:01:34;;;;;;;12.48;1.70;;;;;;;-146.27;100.00;83895.09;5082213;28;20111;-69
2023/04/07 07:04:00;;;;;;;7.22;1.45;;;;;;;-146.27;100.00;83891.06;5085438;28;20012;-70
2023/04/07 07:06:26;;;;;;;14.13;1.50;;;;;;;-146.27;100.00;83879.00;5088046;28;20064;-70
2023/04/07 07:08:51;;;;;;;9.82;2.05;;;;;;;-146.27;100.00;83875.00;5081304;28;20085;-71
2023/04/07 07:11:17;;;;;;;3.42;1.60;;;;;;;-146.27;100.00;83907.16;5086563;28;20055;-71
2023/04/07 07:13:43;;;;;;;5.03;1.60;;;;;;;-146.27;100.00;83885.03;5077439;28;20047;-70
2023/04/07 07:16:11;;;;;;;11.18;2.15;;;;;;;-146.27;100.00;83856.91;5088834;28;20025;-70
2023/04/07 07:18:37;;;;;;;10.05;1.58;;;;;;;-146.27;100.00;83870.97;5085824;28;20043;-70
2023/04/07 07:21:03;;;;;;;6.65;1.52;;;;;;;-146.27;100.00;83824.75;5082034;28;20036;-70
2023/04/07 07:23:28;;;;;;;15.73;1.80;;;;;;;-146.27;100.00;83921.22;5089727;28;20016;-70
2023/04/07 07:25:54;;;;;;;8.90;1.85;;;;;;;-146.27;100.00;83887.06;5088163;28;20483;-70
2023/04/07 07:28:20;;;;;;;10.07;1.75;;;;;;;-146.27;100.00;83854.91;5077936;28;20051;-70
2023/04/07 07:30:46;;;;;;;10.88;1.67;;;;;;;-146.27;100.00;83846.84;5095253;28;20035;-70
2023/04/07 07:33:11;;;;;;;23.08;2.75;;;;;;;-146.27;100.00;83848.88;5094196;28;20351;-70
2023/04/07 07:35:37;;;;;;;12.43;2.05;;;;;;;-146.27;100.00;83885.03;5077577;28;20020;-70
2023/04/07 07:38:03;;;;;;;13.30;2.28;;;;;;;-146.27;100.00;83862.94;5093942;28;20035;-69
2023/04/07 07:40:28;;;;;;;7.68;1.95;;;;;;;-146.27;100.00;83850.88;5083725;28;20111;-69
2023/04/07 07:42:54;;;;;;;9.30;2.00;;;;;;;-146.27;100.00;83891.06;5102077;28;20020;-69
2023/04/07 07:45:19;;;;;;;13.95;2.13;;;;;;;-146.27;100.00;83866.97;5088421;28;20039;-70
2023/04/07 07:47:44;;;;;;;8.60;1.83;;;;;;;-146.27;100.00;83838.81;5090752;28;20124;-70
2023/04/07 07:50:10;;;;;;;13.35;1.88;;;;;;;-146.27;100.00;83854.91;5088221;28;20024;-70
2023/04/07 07:52:36;;;;;;;8.25;1.58;;;;;;;-146.27;100.00;83858.91;5086012;28;20054;-70
2023/04/07 07:55:01;;;;;;;14.68;2.40;;;;;;;-146.27;100.00;83794.63;5084936;28;20107;-69
2023/04/07 07:57:27;;;;;;;6.43;1.77;;;;;;;-146.27;100.00;83798.63;5083993;28;20016;-71
2023/04/07 07:59:52;;;;;;;6.22;1.23;;;;;;;-146.27;100.00;83752.41;5091199;28;20024;-71
2023/04/07 08:02:18;;;;;;;5.85;1.20;;;;;;;-146.27;100.00;83850.88;5077668;28;20023;-71
2023/04/07 08:04:44;;;;;;;15.40;2.30;;;;;;;-146.27;100.00;83790.59;5085774;28;20471;-70
2023/04/07 08:07:10;;;;;;;10.00;2.22;;;;;;;-146.27;100.00;83790.59;5092275;28;20028;-70
2023/04/07 08:09:36;;;;;;;8.88;1.35;;;;;;;-146.27;100.00;83746.38;5094036;28;20030;-69
2023/04/07 08:12:02;;;;;;;9.70;1.50;;;;;;;-146.27;100.00;83734.31;5086642;28;20023;-69
2023/04/07 08:14:28;;;;;;;3.83;1.13;;;;;;;-146.27;100.00;83746.38;5088888;28;20065;-70
2023/04/07 08:16:53;;;;;;;4.63;1.10;;;;;;;-146.27;100.00;83744.38;5089654;28;20046;-72
2023/04/07 08:19:19;;;;;;;7.45;1.50;;;;;;;-146.27;100.00;83786.56;5093481;28;20031;-72
2023/04/07 08:21:44;;;;;;;7.13;1.50;;;;;;;-146.27;100.00;83798.63;5095908;28;20057;-72
2023/04/07 08:24:09;;;;;;;4.88;1.30;;;;;;;-146.27;100.00;83810.69;5081305;28;20023;-73
2023/04/07 08:26:35;;;;;;;8.60;1.55;;;;;;;-146.27;100.00;83750.41;5077970;28;20373;-74
2023/04/07 08:29:00;;;;;;;11.90;1.67;;;;;;;-146.27;100.00;83782.56;5093586;28;20028;-73
2023/04/07 08:31:26;;;;;;;10.02;1.48;;;;;;;-146.27;100.00;83758.44;5087026;28;20460;-72
2023/04/07 08:33:56;;;;;;;9.40;1.23;;;;;;;-146.27;100.00;83818.72;5086064;28;20078;-71
2023/04/07 08:36:21;;;;;;;8.95;1.50;;;;;;;-146.27;100.00;83722.28;5089276;28;20028;-70
2023/04/07 08:38:47;;;;;;;10.30;1.35;;;;;;;-146.27;100.00;83754.44;5087216;28;20497;-72
2023/04/07 08:41:18;;;;;;;11.80;1.83;;;;;;;-146.27;100.00;83738.34;5091247;28;20028;-72
2023/04/07 08:43:45;;;;;;;8.25;1.45;;;;;;;-146.27;100.00;83736.34;5092490;28;20043;-72
2023/04/07 08:46:12;;;;;;;7.57;1.30;;;;;;;-146.27;100.00;83746.38;5092594;28;20039;-72
2023/04/07 08:48:38;;;;;;;11.75;1.15;;;;;;;-146.27;100.00;83724.28;5086406;28;20103;-72
2023/04/07 08:51:05;;;;;;;8.27;1.30;;;;;;;-146.27;100.00;83724.28;5106311;28;20015;-72
2023/04/07 08:53:40;;;;;;;8.23;1.65;;;;;;;-146.27;100.00;83720.25;5085967;28;20027;-72
2023/04/07 08:56:10;;;;;;;12.13;2.13;;;;;;;-146.27;100.00;83742.38;5092002;28;20058;-73
2023/04/07 08:58:36;;;;;;;9.68;1.83;;;;;;;-146.27;100.00;83786.56;5099895;28;20078;-73
2023/04/07 09:01:04;;;;;;;9.48;1.52;;;;;;;-146.27;100.00;83746.38;5100424;28;20024;-73
2023/04/07 09:03:31;;;;;;;14.45;1.77;;;;;;;-146.27;100.00;83752.41;5087422;28;20023;-73
2023/04/07 09:05:58;;;;;;;11.43;1.80;;;;;;;-146.27;100.00;83744.38;5098200;28;20047;-73
2023/04/07 09:08:24;;;;;;;11.55;3.80;;;;;;;-146.27;100.00;83756.44;5094823;28;20035;-73
2023/04/07 09:10:50;;;;;;;10.40;1.73;;;;;;;-146.27;100.00;83730.31;5093697;28;20094;-73
2023/04/07 09:13:17;;;;;;;6.63;1.17;;;;;;;-146.27;100.00;83702.19;5091627;28;20114;-74
2023/04/07 09:15:43;;;;;;;9.50;1.77;;;;;;;-146.27;100.00;83716.25;5088584;28;20074;-74
2023/04/07 09:18:09;;;;;;;11.68;1.70;;;;;;;-146.27;100.00;83692.13;5087937;28;20398;-73
2023/04/07 09:20:57;;;;;;;17.60;1.65;;;;;;;-146.27;100.00;83678.06;5083872;28;20023;-72
2023/04/07 09:23:29;;;;;;;9.75;2.00;;;;;;;-146.27;100.00;83738.34;5080810;28;20032;-73
2023/04/07 09:25:54;;;;;;;4.25;1.40;;;;;;;-146.27;100.00;83688.09;5086231;28;20024;-73
2023/04/07 09:28:21;;;;;;;7.97;1.60;;;;;;;-146.27;100.00;83686.09;5086619;28;20036;-74
2023/04/07 09:30:53;;;;;;;9.45;1.45;;;;;;;-146.27;100.00;83684.09;5086338;28;20028;-74
2023/04/07 09:33:29;;;;;;;11.65;3.22;;;;;;;-146.27;100.00;83686.09;5086796;28;20032;-73
2023/04/07 09:35:55;;;;;;;5.85;1.30;;;;;;;-146.27;100.00;83657.97;5075580;28;20032;-77
2023/04/07 09:38:21;;;;;;;10.45;1.85;;;;;;;-146.27;100.00;83599.69;5084421;28;20035;-74
2023/04/07 09:40:49;;;;;;;14.23;1.88;;;;;;;-146.27;100.00;83613.75;5084078;28;20028;-73
2023/04/07 09:43:17;;;;;;;16.95;2.75;;;;;;;-146.27;100.00;83559.50;5085423;28;20028;-74
2023/04/07 09:45:43;;;;;;;10.68;1.90;;;;;;;-146.27;100.00;83557.50;5072218;28;20031;-74
2023/04/07 09:48:19;;;;;;;10.50;1.60;;;;;;;-146.27;100.00;83543.44;5086239;28;20032;-73
2023/04/07 09:50:48;;;;;;;5.82;1.85;;;;;;;-146.27;100.00;83525.34;5085841;28;20132;-73
2023/04/07 09:53:14;;;;;;;12.88;1.58;;;;;;;-146.27;100.00;83537.41;5078071;28;20031;-74
2023/04/07 09:55:42;;;;;;;7.90;2.03;;;;;;;-146.27;100.00;83569.56;5087161;28;20103;-74
2023/04/07 09:58:12;;;;;;;12.57;2.95;;;;;;;-146.27;99.36;83567.53;5086437;28;20032;-74
2023/04/07 10:00:37;;;;;;;12.15;2.00;;;;;;;-146.27;100.00;83547.44;5077625;28;20063;-72
2023/04/07 10:03:03;;;;;;;7.70;1.45;;;;;;;-146.27;100.00;83537.41;5080275;28;20048;-73
2023/04/07 10:05:29;;;;;;;12.93;2.20;;;;;;;-146.27;100.00;83539.41;5084754;28;20539;-73
2023/04/07 10:07:55;;;;;;;11.55;2.03;;;;;;;-146.27;100.00;83567.53;5088749;28;20020;-73
2023/04/07 10:10:20;;;;;;;13.98;2.60;;;;;;;-146.27;100.00;83619.78;5093382;28;20139;-73
2023/04/07 10:12:49;;;;;;;17.00;2.40;;;;;;;-146.27;100.00;83605.72;5088370;28;20065;-73
2023/04/07 10:15:15;;;;;;;10.05;1.98;;;;;;;-146.27;100.00;83589.66;5091210;28;20077;-73
2023/04/07 10:17:48;;;;;;;9.48;2.35;;;;;;;-146.27;100.00;83587.63;5096992;28;20578;-73
2023/04/07 10:20:16;;;;;;;14.35;1.70;;;;;;;-146.27;100.00;83597.69;5090962;28;20052;-72
2023/04/07 10:22:43;;;;;;;14.43;2.00;;;;;;;-146.27;100.00;83561.53;5078309;28;20585;-72
2023/04/07 10:25:12;;;;;;;8.18;1.80;;;;;;;-146.27;100.00;83581.59;5080452;28;20024;-73
2023/04/07 10:27:50;;;;;;;7.63;1.60;;;;;;;-146.27;100.00;83599.69;5083094;28;20023;-72
2023/04/07 10:30:28;;;;;;;11.02;1.80;;;;;;;-146.27;100.00;83633.84;5086688;28;20027;-72
2023/04/07 10:32:54;;;;;;;9.05;1.58;;;;;;;-146.27;100.00;83718.25;5088642;28;20028;-73
2023/04/07 10:35:20;;;;;;;13.77;1.80;;;;;;;-146.27;100.00;83633.84;5090326;28;20022;-73
2023/04/07 10:38:09;;;;;;;7.30;2.00;;;;;;;-146.27;100.00;83643.91;5088329;28;20036;-73
2023/04/07 10:40:36;;;;;;;8.10;1.73;;;;;;;-146.27;100.00;83643.91;5095122;28;20078;-72
2023/04/07 10:43:01;;;;;;;8.18;1.55;;;;;;;-146.27;100.00;83611.75;5093891;28;20052;-72
2023/04/07 10:45:45;;;;;;;10.48;2.15;;;;;;;-146.27;100.00;83672.03;5094366;28;20052;-72
2023/04/07 10:48:12;;;;;;;9.73;2.10;;;;;;;-146.27;100.00;83597.69;5088341;28;20019;-72
2023/04/07 10:50:38;;;;;;;10.32;1.92;;;;;;;-146.27;100.00;83585.63;5076386;28;20024;-72
2023/04/07 10:53:12;;;;;;;14.85;2.13;;;;;;;-146.27;100.00;83643.91;5094664;28;20074;-72
2023/04/07 10:55:39;;;;;;;13.02;2.80;;;;;;;-146.27;100.00;83627.81;5093277;28;20114;-73
2023/04/07 10:58:17;;;;;;;11.38;2.00;;;;;;;-146.27;100.00;83623.81;5082701;28;20032;-73
2023/04/07 11:01:06;;;;;;;10.40;1.92;;;;;;;-146.27;100.00;83595.69;5089008;28;20511;-72
2023/04/07 11:03:33;;;;;;;9.50;1.90;;;;;;;-146.27;100.00;83613.75;5081161;28;20042;-73